Mahone, West Virginia
Current Conditions -  °F | °C
As of 7:36 AM on Thursday 23 Oct 2014 (Local Time) from KPKB Reporting Station
Overcast Overcast  
Wind Chill: 41°   Ceiling: 4000
Heat Index: 45°   Visibility: 10mi
Dew Point: 42°   Wind: 8mph
Humidity: 90%   Direction: 320°NW
Pressure: 30.22"   Gusts: NA
Location:  39.1565°N, 81.0304°W
Report Text: KPKB 231136Z 32007KT 10SM SCT009 OVC040 07/06 A3022 RMK AO2 T00720056
Loading
Personal Weather Stations






























Interactive Weather Map
Tropical Storm Tracking
New forecast layout! Learn more

10-Day Weather Forecast

Advertisements
Track Severe Weather on mobile